Riderwood, Maryland
Current Conditions -  °F | °C
As of 1:45 PM on Saturday 20 Dec 2014 (Local Time) from KMTN Reporting Station
Scattered Clouds Scattered Clouds  
Wind Chill: 37°   Ceiling: Unl
Heat Index: 37°   Visibility: 10mi
Dew Point: 25°   Wind: 0mph
Humidity: 60%   Direction: NA
Pressure: 30.28"   Gusts: NA
Location:  39.41°N, 76.65°W
Report Text: KMTN 201845Z 00000KT 10SM SCT180 03/M04 A3028
Loading
Personal Weather Stations






























Interactive Weather Map New forecast layout! Learn more

10-Day Weather Forecast

Advertisements
Track Severe Weather on mobile